Time;durP1;ratioP1;P1;durP2;ratioP2;P2;SDS_P1;SDS_P2;PMS_P1;PMS_P2;Temp;Humidity;BMP_temperature;BMP_pressure;BME280_temperature;BME280_humidity;BME280_pressure;Samples;Min_cycle;Max_cycle;Signal;HPM_P1;HPM_P2
2021/06/06 00:01:53;;;;;;;5.40;3.13;;;11.70;99.90;;;;;;5057212;28;20049;-67
2021/06/06 00:04:21;;;;;;;3.05;2.75;;;11.60;99.90;;;;;;5056801;28;20029;-67
2021/06/06 00:06:48;;;;;;;2.50;2.30;;;11.60;99.90;;;;;;5057070;28;20017;-67
2021/06/06 00:09:16;;;;;;;5.43;3.10;;;11.50;99.90;;;;;;5056661;28;20021;-67
2021/06/06 00:11:49;;;;;;;3.30;2.90;;;11.60;99.90;;;;;;5056887;28;20032;-67
2021/06/06 00:14:22;;;;;;;4.20;2.95;;;11.50;99.90;;;;;;5056537;28;20040;-67
2021/06/06 00:16:54;;;;;;;6.97;3.38;;;11.90;99.90;;;;;;5056868;28;20021;-67
2021/06/06 00:19:22;;;;;;;3.13;2.80;;;11.40;99.90;;;;;;5056781;28;20028;-67
2021/06/06 00:21:49;;;;;;;3.85;3.45;;;11.30;99.90;;;;;;5056668;28;20029;-68
2021/06/06 00:24:19;;;;;;;4.18;3.47;;;11.50;99.90;;;;;;5056349;28;20397;-67
2021/06/06 00:26:45;;;;;;;3.67;3.22;;;11.60;99.90;;;;;;5056398;28;20028;-67
2021/06/06 00:29:11;;;;;;;4.43;3.33;;;11.30;99.90;;;;;;5056401;28;20079;-67
2021/06/06 00:31:37;;;;;;;2.70;2.40;;;11.50;99.90;;;;;;5056489;28;20009;-67
2021/06/06 00:34:04;;;;;;;4.60;2.70;;;11.00;99.90;;;;;;5056500;28;20036;-67
2021/06/06 00:36:31;;;;;;;6.40;3.40;;;11.30;99.90;;;;;;5056022;28;20024;-67
2021/06/06 00:38:57;;;;;;;4.38;2.53;;;11.40;99.90;;;;;;5056405;28;20031;-67
2021/06/06 00:41:25;;;;;;;5.15;2.75;;;11.30;99.90;;;;;;5056298;28;20053;-67
2021/06/06 00:43:52;;;;;;;4.43;2.35;;;11.30;99.90;;;;;;5056277;28;20021;-67
2021/06/06 00:46:20;;;;;;;5.55;3.13;;;11.10;99.90;;;;;;5056318;28;20021;-67
2021/06/06 00:48:46;;;;;;;3.45;2.88;;;11.10;99.90;;;;;;5056434;28;20021;-67
2021/06/06 00:51:25;;;;;;;3.47;3.17;;;11.50;99.90;;;;;;5056256;28;20029;-67
2021/06/06 00:53:56;;;;;;;2.83;2.55;;;11.30;99.90;;;;;;5056534;28;20039;-67
2021/06/06 00:56:25;;;;;;;3.70;2.85;;;11.20;99.90;;;;;;5056238;28;20025;-67
2021/06/06 00:58:54;;;;;;;4.20;2.97;;;11.10;99.90;;;;;;5056209;28;20163;-67
2021/06/06 01:01:23;;;;;;;4.75;2.90;;;10.90;99.90;;;;;;5056362;28;20021;-67
2021/06/06 01:03:50;;;;;;;3.53;2.92;;;11.10;99.90;;;;;;5056349;28;20539;-67
2021/06/06 01:06:40;;;;;;;3.40;3.03;;;11.10;99.90;;;;;;5055982;28;20397;-68
2021/06/06 01:09:08;;;;;;;10.88;3.03;;;11.10;99.90;;;;;;5055372;28;20520;-67
2021/06/06 01:12:02;;;;;;;5.07;3.50;;;11.10;99.90;;;;;;5056361;28;20100;-67
2021/06/06 01:14:43;;;;;;;5.78;3.15;;;11.60;99.90;;;;;;5055970;28;20055;-67
2021/06/06 01:17:23;;;;;;;5.72;3.10;;;11.10;99.90;;;;;;5055976;28;20359;-67
2021/06/06 01:19:55;;;;;;;7.65;2.70;;;10.80;99.90;;;;;;5056417;28;20079;-67
2021/06/06 01:22:43;;;;;;;4.70;2.40;;;11.10;99.90;;;;;;5055907;28;20071;-67
2021/06/06 01:25:18;;;;;;;7.30;3.42;;;10.60;99.90;;;;;;5055774;28;20021;-68
2021/06/06 01:28:08;;;;;;;2.70;2.42;;;10.90;99.90;;;;;;5056063;28;20032;-67
2021/06/06 01:30:38;;;;;;;8.45;3.47;;;10.80;99.90;;;;;;5055875;28;20100;-67
2021/06/06 01:33:04;;;;;;;3.80;2.85;;;10.80;99.90;;;;;;5054637;28;20032;-67
2021/06/06 01:36:08;;;;;;;4.60;2.90;;;10.70;99.90;;;;;;5055853;28;20029;-68
2021/06/06 01:38:56;;;;;;;4.55;2.85;;;10.90;99.90;;;;;;5069083;28;20056;-67
2021/06/06 01:41:27;;;;;;;3.10;2.80;;;10.70;99.90;;;;;;5055966;28;20104;-67
2021/06/06 01:43:56;;;;;;;4.07;3.10;;;11.00;99.90;;;;;;5055860;28;20032;-68
2021/06/06 01:46:33;;;;;;;3.13;2.83;;;10.70;99.90;;;;;;5055729;28;20874;-67
2021/06/06 01:49:00;;;;;;;4.38;2.63;;;10.20;99.90;;;;;;5059553;28;20025;-68
2021/06/06 01:51:40;;;;;;;2.78;2.33;;;10.70;99.90;;;;;;5059271;28;20083;-68
2021/06/06 01:54:08;;;;;;;4.47;3.10;;;11.10;99.90;;;;;;5059246;28;20029;-67
2021/06/06 01:56:36;;;;;;;3.03;2.83;;;10.50;99.90;;;;;;5059195;28;20077;-67
2021/06/06 01:59:08;;;;;;;3.95;2.50;;;10.60;99.90;;;;;;5059220;28;20032;-68
2021/06/06 02:01:35;;;;;;;5.82;3.53;;;10.20;99.90;;;;;;5059365;28;20032;-67
2021/06/06 02:04:02;;;;;;;5.82;3.08;;;10.10;99.90;;;;;;5059177;28;20068;-68
2021/06/06 02:06:37;;;;;;;3.50;2.85;;;10.60;99.90;;;;;;5059139;28;20081;-68
2021/06/06 02:09:09;;;;;;;4.03;3.33;;;10.50;99.90;;;;;;5058838;28;20056;-67
2021/06/06 02:11:41;;;;;;;5.00;2.97;;;10.60;99.90;;;;;;5059170;28;20409;-67
2021/06/06 02:14:13;;;;;;;3.45;2.78;;;10.00;99.90;;;;;;5058540;28;20021;-67
2021/06/06 02:16:45;;;;;;;3.03;2.78;;;10.80;99.90;;;;;;5049699;28;20071;-67
2021/06/06 02:19:12;;;;;;;3.72;2.60;;;10.10;99.90;;;;;;5058788;28;20574;-67
2021/06/06 02:21:38;;;;;;;3.33;3.03;;;10.40;99.90;;;;;;5058898;28;20469;-67
2021/06/06 02:24:06;;;;;;;5.88;3.85;;;10.50;99.90;;;;;;5058596;28;20094;-68
2021/06/06 02:26:47;;;;;;;5.78;3.08;;;10.60;99.90;;;;;;5058631;28;20063;-68
2021/06/06 02:29:34;;;;;;;3.38;2.53;;;10.50;99.90;;;;;;5058619;28;20051;-68
2021/06/06 02:32:20;;;;;;;2.92;2.72;;;10.30;99.90;;;;;;5058562;28;20056;-68
2021/06/06 02:34:58;;;;;;;6.82;2.92;;;10.20;99.90;;;;;;5058578;28;20059;-68
2021/06/06 02:37:33;;;;;;;4.72;2.67;;;10.50;99.90;;;;;;5058532;28;20058;-68
2021/06/06 02:40:07;;;;;;;2.97;2.78;;;10.40;99.90;;;;;;5058303;28;20027;-68
2021/06/06 02:42:40;;;;;;;3.95;2.92;;;9.80;99.90;;;;;;5058515;28;20025;-67
2021/06/06 02:45:23;;;;;;;2.47;2.28;;;10.40;99.90;;;;;;5058029;28;20059;-67
2021/06/06 02:47:52;;;;;;;3.28;2.90;;;10.70;99.90;;;;;;5058420;28;20030;-67
2021/06/06 02:50:39;;;;;;;4.28;2.80;;;10.40;99.90;;;;;;5058750;28;20025;-67
2021/06/06 02:53:25;;;;;;;3.15;2.90;;;10.50;99.90;;;;;;5058167;28;20108;-67
2021/06/06 02:56:00;;;;;;;5.43;3.57;;;10.30;99.90;;;;;;5060987;28;20565;-67
2021/06/06 02:58:34;;;;;;;4.38;2.90;;;10.30;99.90;;;;;;5056517;28;20021;-67
2021/06/06 03:01:10;;;;;;;3.55;3.03;;;10.10;99.90;;;;;;5057972;28;20025;-67
2021/06/06 03:03:38;;;;;;;2.88;2.63;;;10.20;99.90;;;;;;5058154;28;20036;-68
2021/06/06 03:06:11;;;;;;;5.95;3.05;;;10.00;99.90;;;;;;5057751;28;20447;-68
2021/06/06 03:08:37;;;;;;;5.68;3.05;;;10.10;99.90;;;;;;5057902;28;20393;-67
2021/06/06 03:11:07;;;;;;;2.63;2.42;;;10.00;99.90;;;;;;5057862;28;20061;-68
2021/06/06 03:13:50;;;;;;;4.18;2.45;;;9.90;99.90;;;;;;5057497;28;20029;-68
2021/06/06 03:16:18;;;;;;;3.08;2.60;;;10.10;99.90;;;;;;5057639;28;20848;-68
2021/06/06 03:18:49;;;;;;;3.60;3.08;;;10.40;99.90;;;;;;5052201;28;20029;-67
2021/06/06 03:21:25;;;;;;;9.45;3.20;;;10.00;99.90;;;;;;5057784;28;20438;-68
2021/06/06 03:23:56;;;;;;;6.90;2.85;;;10.20;99.90;;;;;;5057376;28;20043;-68
2021/06/06 03:26:23;;;;;;;6.53;3.95;;;10.30;99.90;;;;;;5057631;28;20051;-67
2021/06/06 03:28:50;;;;;;;4.55;3.08;;;10.50;99.90;;;;;;5057264;28;20035;-67
2021/06/06 03:31:28;;;;;;;4.63;3.65;;;10.30;99.90;;;;;;5057834;28;20477;-68
2021/06/06 03:33:57;;;;;;;8.07;2.63;;;10.00;99.90;;;;;;5057379;28;20037;-67
2021/06/06 03:36:27;;;;;;;3.00;2.80;;;10.10;99.90;;;;;;5057237;28;20052;-68
2021/06/06 03:38:54;;;;;;;3.20;2.78;;;10.30;99.90;;;;;;5044364;28;20021;-67
2021/06/06 03:41:22;;;;;;;3.03;2.83;;;10.00;99.90;;;;;;5057524;28;20038;-67
2021/06/06 03:43:47;;;;;;;8.57;3.75;;;10.00;99.90;;;;;;5057284;28;20435;-68
2021/06/06 03:46:13;;;;;;;2.80;2.60;;;10.20;99.90;;;;;;5057191;28;20100;-67
2021/06/06 03:48:40;;;;;;;4.20;2.72;;;10.10;99.90;;;;;;5057413;28;20393;-68
2021/06/06 03:51:07;;;;;;;9.55;2.83;;;9.90;99.90;;;;;;5057077;28;20445;-67
2021/06/06 03:53:35;;;;;;;4.32;2.63;;;10.20;99.90;;;;;;5057001;28;20067;-68
2021/06/06 03:56:06;;;;;;;3.05;2.72;;;10.10;99.90;;;;;;5056995;28;20075;-68
2021/06/06 03:58:32;;;;;;;3.60;3.00;;;10.10;99.90;;;;;;5056914;28;20016;-67
2021/06/06 04:00:58;;;;;;;4.93;2.85;;;10.40;99.90;;;;;;5056911;28;20386;-67
2021/06/06 04:03:24;;;;;;;5.07;3.22;;;9.80;99.90;;;;;;5057112;28;20107;-68
2021/06/06 04:05:51;;;;;;;3.33;3.03;;;9.80;99.90;;;;;;5056977;28;20096;-67
2021/06/06 04:08:17;;;;;;;3.90;3.45;;;9.60;99.90;;;;;;5056965;28;20055;-67
2021/06/06 04:10:43;;;;;;;8.05;3.20;;;10.00;99.90;;;;;;5056213;28;20031;-68
2021/06/06 04:13:09;;;;;;;7.70;2.80;;;10.30;99.90;;;;;;5056646;28;20017;-67
2021/06/06 04:15:36;;;;;;;3.22;2.70;;;9.70;99.90;;;;;;5056601;28;20037;-68
2021/06/06 04:18:17;;;;;;;3.78;3.33;;;10.00;99.90;;;;;;5056572;28;20024;-67
2021/06/06 04:20:45;;;;;;;6.30;3.33;;;9.80;99.90;;;;;;5056613;28;20035;-67
2021/06/06 04:23:11;;;;;;;4.93;3.03;;;9.90;99.90;;;;;;5056546;28;20149;-67
2021/06/06 04:25:38;;;;;;;3.00;2.70;;;9.80;99.90;;;;;;5056405;28;20049;-68
2021/06/06 04:28:05;;;;;;;5.72;2.60;;;9.90;99.90;;;;;;5056457;28;20025;-67
2021/06/06 04:30:30;;;;;;;6.97;2.95;;;10.00;99.90;;;;;;5055429;28;20028;-67
2021/06/06 04:32:56;;;;;;;3.03;2.83;;;9.70;99.90;;;;;;5056686;28;20025;-67
2021/06/06 04:35:22;;;;;;;8.63;2.72;;;10.00;99.90;;;;;;5056358;28;20048;-68
2021/06/06 04:37:48;;;;;;;5.30;3.03;;;9.70;99.90;;;;;;5056655;28;20021;-67
2021/06/06 04:40:16;;;;;;;3.00;2.75;;;9.90;99.90;;;;;;5056241;28;20032;-67
2021/06/06 04:42:42;;;;;;;5.80;3.03;;;9.90;99.90;;;;;;5056610;28;20024;-67
2021/06/06 04:45:13;;;;;;;4.05;2.90;;;9.90;99.90;;;;;;5056142;28;20112;-67
2021/06/06 04:47:39;;;;;;;5.13;3.25;;;10.20;99.90;;;;;;5056512;28;20108;-67
2021/06/06 04:50:08;;;;;;;5.70;3.17;;;10.20;99.90;;;;;;5056284;28;20119;-68
2021/06/06 04:52:38;;;;;;;3.25;2.40;;;10.30;99.90;;;;;;5056516;28;20025;-67
2021/06/06 04:55:10;;;;;;;5.22;2.58;;;9.90;99.90;;;;;;5056297;28;20029;-68
2021/06/06 04:57:36;;;;;;;5.70;2.75;;;10.20;99.90;;;;;;5056371;28;20491;-67
2021/06/06 05:00:06;;;;;;;4.05;3.00;;;9.90;99.90;;;;;;5056145;28;20075;-67
2021/06/06 05:02:32;;;;;;;5.30;3.00;;;10.50;99.90;;;;;;5056149;28;20079;-67
2021/06/06 05:04:58;;;;;;;2.92;2.50;;;10.70;99.90;;;;;;5056338;28;20021;-68
2021/06/06 05:07:24;;;;;;;2.55;2.30;;;10.40;99.90;;;;;;5056248;28;20436;-67
2021/06/06 05:09:50;;;;;;;3.33;3.03;;;10.50;99.90;;;;;;5056380;28;20033;-68
2021/06/06 05:12:16;;;;;;;2.65;1.95;;;10.80;99.90;;;;;;5056252;28;20025;-68
2021/06/06 05:14:42;;;;;;;2.58;2.20;;;10.80;99.90;;;;;;5055902;28;20083;-68
2021/06/06 05:17:08;;;;;;;2.53;2.33;;;11.00;99.90;;;;;;5056086;28;20021;-68
2021/06/06 05:19:34;;;;;;;3.00;2.63;;;11.30;99.90;;;;;;5056196;28;20810;-67
2021/06/06 05:22:00;;;;;;;6.85;2.85;;;11.10;99.90;;;;;;5055086;28;20397;-68
2021/06/06 05:24:26;;;;;;;2.92;2.13;;;11.50;99.90;;;;;;5058569;28;20040;-67
2021/06/06 05:26:52;;;;;;;5.75;3.15;;;11.60;99.90;;;;;;5059884;28;20020;-68
2021/06/06 05:29:18;;;;;;;2.13;1.92;;;12.20;99.90;;;;;;5059970;28;20064;-67
2021/06/06 05:31:44;;;;;;;6.88;2.35;;;12.10;99.90;;;;;;5059653;28;20047;-67
2021/06/06 05:34:10;;;;;;;2.83;2.55;;;12.50;99.90;;;;;;5059816;28;20477;-67
2021/06/06 05:36:36;;;;;;;4.40;2.50;;;12.80;99.90;;;;;;5059460;28;20009;-67
2021/06/06 05:39:05;;;;;;;4.30;2.30;;;12.40;99.90;;;;;;5059641;28;20505;-68
2021/06/06 05:41:31;;;;;;;2.03;1.92;;;13.40;99.90;;;;;;5058226;28;20021;-67
2021/06/06 05:43:58;;;;;;;3.97;1.92;;;13.20;99.90;;;;;;5059538;28;20036;-67
2021/06/06 05:46:24;;;;;;;4.07;2.30;;;13.50;99.90;;;;;;5059307;28;20413;-67
2021/06/06 05:48:50;;;;;;;3.08;2.80;;;13.50;99.90;;;;;;5059713;28;20091;-67
2021/06/06 05:51:18;;;;;;;1.80;1.70;;;14.00;99.90;;;;;;5059413;28;20045;-67
2021/06/06 05:53:44;;;;;;;1.95;1.85;;;14.00;99.90;;;;;;5059421;28;20036;-68
2021/06/06 05:56:10;;;;;;;5.20;2.08;;;14.10;99.90;;;;;;5057846;28;20071;-68
2021/06/06 05:58:38;;;;;;;3.38;1.98;;;14.60;99.90;;;;;;5059020;28;20036;-68
2021/06/06 06:01:04;;;;;;;5.28;2.40;;;15.20;99.90;;;;;;5059336;28;20045;-68
2021/06/06 06:03:30;;;;;;;8.48;2.90;;;15.00;99.90;;;;;;5059391;28;20478;-68
2021/06/06 06:05:57;;;;;;;4.20;2.65;;;15.30;99.90;;;;;;5059039;28;20102;-68
2021/06/06 06:08:29;;;;;;;3.47;2.15;;;15.30;99.90;;;;;;5059008;28;20473;-68
2021/06/06 06:10:56;;;;;;;5.50;3.30;;;15.70;99.90;;;;;;5059042;28;20021;-68
2021/06/06 06:13:26;;;;;;;4.95;2.30;;;15.60;99.90;;;;;;5058707;28;20494;-68
2021/06/06 06:15:53;;;;;;;9.85;3.35;;;15.90;99.90;;;;;;5058765;28;20362;-68
2021/06/06 06:18:21;;;;;;;4.97;2.63;;;16.10;99.90;;;;;;5058879;28;20028;-68
2021/06/06 06:20:48;;;;;;;8.98;2.72;;;16.30;99.90;;;;;;5059127;28;20104;-68
2021/06/06 06:23:13;;;;;;;6.53;3.15;;;16.70;99.90;;;;;;5058750;28;20049;-68
2021/06/06 06:25:39;;;;;;;6.40;2.78;;;17.00;99.90;;;;;;5058673;28;20016;-68
2021/06/06 06:28:06;;;;;;;10.73;3.42;;;17.20;99.90;;;;;;5058563;28;20435;-68
2021/06/06 06:30:35;;;;;;;6.85;3.83;;;17.70;99.90;;;;;;5058615;28;20041;-68
2021/06/06 06:33:02;;;;;;;8.40;3.60;;;18.00;99.90;;;;;;5058346;28;20452;-68
2021/06/06 06:35:29;;;;;;;5.95;2.70;;;18.40;99.90;;;;;;5058435;28;20032;-68
2021/06/06 06:37:55;;;;;;;3.10;2.45;;;18.60;99.90;;;;;;5058659;28;20033;-68
2021/06/06 06:40:23;;;;;;;4.82;2.67;;;18.90;99.90;;;;;;5058216;28;20022;-68
2021/06/06 06:42:49;;;;;;;5.00;2.67;;;19.10;99.90;;;;;;5058377;28;20079;-68
2021/06/06 06:45:20;;;;;;;4.78;2.78;;;19.50;99.90;;;;;;5058848;28;20033;-68
2021/06/06 06:47:47;;;;;;;5.13;2.53;;;19.80;99.90;;;;;;5058536;28;20048;-68
2021/06/06 06:50:15;;;;;;;4.40;2.15;;;19.90;99.90;;;;;;5058270;28;20021;-68
2021/06/06 06:52:41;;;;;;;5.68;2.90;;;20.20;99.90;;;;;;5056889;28;20053;-68
2021/06/06 06:55:15;;;;;;;7.05;2.42;;;20.20;99.90;;;;;;5058256;28;20025;-68
2021/06/06 06:57:41;;;;;;;3.17;1.83;;;20.30;99.90;;;;;;5058226;28;20108;-68
2021/06/06 07:00:11;;;;;;;7.88;2.53;;;20.60;99.90;;;;;;5054205;28;20055;-70
2021/06/06 07:02:37;;;;;;;3.95;2.47;;;21.00;99.90;;;;;;5057600;28;20017;-70
2021/06/06 07:05:04;;;;;;;5.25;1.90;;;21.40;99.90;;;;;;5056912;28;20100;-70
2021/06/06 07:07:30;;;;;;;8.77;3.65;;;21.80;99.90;;;;;;5057047;28;20025;-70
2021/06/06 07:09:56;;;;;;;5.88;2.17;;;21.90;99.90;;;;;;5057833;28;20393;-70
2021/06/06 07:12:22;;;;;;;6.05;2.42;;;22.00;99.90;;;;;;5057295;28;20071;-70
2021/06/06 07:14:48;;;;;;;6.22;2.08;;;22.40;99.90;;;;;;5056974;28;20016;-70
2021/06/06 07:17:14;;;;;;;6.82;2.70;;;22.60;99.90;;;;;;5060777;28;20491;-70
2021/06/06 07:19:40;;;;;;;7.43;2.75;;;22.80;99.90;;;;;;5057611;28;20025;-70
2021/06/06 07:22:06;;;;;;;7.47;2.65;;;23.20;99.90;;;;;;5057116;28;20121;-70
2021/06/06 07:24:33;;;;;;;5.40;1.60;;;23.40;99.90;;;;;;5057710;28;20037;-70
2021/06/06 07:26:59;;;;;;;7.55;2.33;;;23.60;99.90;;;;;;5057493;28;20021;-70
2021/06/06 07:29:30;;;;;;;4.07;1.77;;;23.70;99.90;;;;;;5056944;28;20082;-70
2021/06/06 07:31:58;;;;;;;3.78;1.75;;;23.90;99.90;;;;;;5057600;28;20033;-70
2021/06/06 07:34:27;;;;;;;5.15;1.95;;;24.30;99.90;;;;;;5058138;28;20033;-71
2021/06/06 07:36:57;;;;;;;5.38;2.03;;;24.50;99.90;;;;;;5056449;28;20041;-70
2021/06/06 07:39:23;;;;;;;4.45;1.80;;;24.90;99.90;;;;;;5065383;28;20032;-70
2021/06/06 07:41:49;;;;;;;4.13;1.42;;;24.60;99.20;;;;;;5057513;28;20393;-70
2021/06/06 07:44:18;;;;;;;3.40;1.55;;;24.50;98.60;;;;;;5055885;28;20374;-68
2021/06/06 07:46:44;;;;;;;3.15;1.98;;;24.70;99.10;;;;;;5056819;28;20033;-68
2021/06/06 07:49:10;;;;;;;5.85;2.10;;;24.90;98.80;;;;;;5056826;28;20048;-68
2021/06/06 07:51:36;;;;;;;4.50;1.25;;;25.00;98.40;;;;;;5056543;28;20033;-68
2021/06/06 07:54:04;;;;;;;4.35;1.73;;;25.00;98.80;;;;;;5056964;28;20059;-68
2021/06/06 07:56:31;;;;;;;2.42;1.52;;;25.40;99.00;;;;;;5043398;28;20029;-68
2021/06/06 07:58:56;;;;;;;2.30;1.20;;;25.70;98.40;;;;;;5056364;28;20017;-68
2021/06/06 08:01:22;;;;;;;2.38;1.13;;;26.20;98.20;;;;;;5056743;28;20583;-68
2021/06/06 08:03:50;;;;;;;4.03;1.40;;;26.60;97.20;;;;;;5055994;28;20029;-69
2021/06/06 08:06:16;;;;;;;11.00;1.83;;;26.80;96.20;;;;;;5055051;28;20048;-70
2021/06/06 08:08:42;;;;;;;2.53;1.17;;;27.00;96.10;;;;;;5056880;28;20025;-67
2021/06/06 08:11:10;;;;;;;4.05;1.30;;;27.10;94.30;;;;;;5056511;28;20028;-67
2021/06/06 08:13:37;;;;;;;2.47;0.95;;;27.10;92.70;;;;;;5056632;28;20107;-67
2021/06/06 08:16:04;;;;;;;4.07;1.10;;;27.00;92.60;;;;;;5056652;28;20094;-67
2021/06/06 08:18:35;;;;;;;3.60;1.42;;;27.20;92.40;;;;;;5056630;28;20024;-67
2021/06/06 08:21:23;;;;;;;2.85;0.95;;;27.50;91.80;;;;;;5056870;28;20033;-67
2021/06/06 08:23:49;;;;;;;2.40;1.13;;;27.70;88.10;;;;;;5056501;28;20564;-67
2021/06/06 08:26:20;;;;;;;3.30;0.80;;;27.60;90.10;;;;;;5056682;28;20025;-67
2021/06/06 08:28:48;;;;;;;0.90;0.75;;;27.90;90.10;;;;;;5056377;28;20382;-67
2021/06/06 08:31:16;;;;;;;3.15;1.13;;;28.00;87.80;;;;;;5056643;28;20075;-67
2021/06/06 08:33:43;;;;;;;5.00;1.48;;;28.30;88.80;;;;;;5056389;28;20113;-67
2021/06/06 08:36:15;;;;;;;2.22;0.82;;;28.30;84.90;;;;;;5056514;28;20033;-67
2021/06/06 08:38:41;;;;;;;3.10;0.77;;;28.60;86.20;;;;;;5056345;28;20025;-67
2021/06/06 08:41:20;;;;;;;3.35;0.88;;;28.80;85.30;;;;;;5056482;28;20032;-67
2021/06/06 08:43:51;;;;;;;2.35;0.93;;;29.10;82.00;;;;;;5052416;28;20147;-57
2021/06/06 08:46:20;;;;;;;1.13;0.65;;;29.20;81.80;;;;;;5057420;28;20030;-57
2021/06/06 08:48:47;;;;;;;4.22;1.02;;;29.70;82.90;;;;;;5055931;28;20020;-58
2021/06/06 08:51:42;;;;;;;4.50;0.75;;;29.70;79.60;;;;;;5055662;28;20029;-58
2021/06/06 08:54:23;;;;;;;1.13;0.70;;;29.90;79.60;;;;;;5062817;28;20095;-57
2021/06/06 08:56:57;;;;;;;1.27;0.40;;;30.40;78.70;;;;;;5046747;28;20065;-57
2021/06/06 08:59:39;;;;;;;1.98;0.82;;;30.70;79.80;;;;;;5059066;28;20018;-57
2021/06/06 09:02:16;;;;;;;0.65;0.50;;;30.50;75.40;;;;;;5058060;28;20024;-57
2021/06/06 09:04:43;;;;;;;2.08;0.93;;;30.20;76.60;;;;;;5053383;28;20074;-58
2021/06/06 09:07:31;;;;;;;3.33;0.90;;;30.20;76.20;;;;;;5059581;28;20037;-57
2021/06/06 09:10:11;;;;;;;1.25;0.70;;;30.40;75.40;;;;;;5060058;28;20445;-57
2021/06/06 09:12:37;;;;;;;2.47;1.48;;;30.50;73.90;;;;;;5060116;28;20039;-57
2021/06/06 09:15:06;;;;;;;3.05;0.55;;;30.70;75.40;;;;;;5059157;28;20455;-57
2021/06/06 09:17:40;;;;;;;1.67;0.57;;;30.90;75.30;;;;;;5060950;28;20078;-58
2021/06/06 09:20:26;;;;;;;2.10;0.60;;;31.20;73.80;;;;;;5060394;28;20014;-58
2021/06/06 09:23:02;;;;;;;1.85;0.93;;;31.30;71.20;;;;;;5059618;28;20280;-57
2021/06/06 09:25:34;;;;;;;2.03;0.70;;;31.50;72.60;;;;;;5059435;28;20021;-58
2021/06/06 09:28:20;;;;;;;3.00;0.90;;;31.40;72.40;;;;;;5064007;28;20043;-57
2021/06/06 09:31:04;;;;;;;2.53;0.98;;;31.60;72.30;;;;;;5053837;28;20033;-58
2021/06/06 09:33:49;;;;;;;3.53;0.80;;;31.70;69.90;;;;;;5059386;28;20017;-58
2021/06/06 09:36:25;;;;;;;;;;;31.60;70.50;;;;;;5059571;28;20113;-58
2021/06/06 09:39:08;;;;;;;2.67;0.70;;;30.70;69.70;;;;;;5052729;28;19905;-57
2021/06/06 09:41:47;;;;;;;2.85;0.73;;;31.40;72.20;;;;;;5055341;28;20029;-58
2021/06/06 09:44:32;;;;;;;2.45;0.93;;;32.30;70.20;;;;;;5058855;28;20021;-57
2021/06/06 09:47:14;;;;;;;1.08;0.60;;;33.30;68.40;;;;;;5059511;28;20024;-58
2021/06/06 09:49:48;;;;;;;3.42;0.80;;;33.60;65.80;;;;;;5059304;28;20521;-58
2021/06/06 09:52:27;;;;;;;1.75;0.68;;;33.70;62.60;;;;;;5059054;28;20037;-58
2021/06/06 09:54:56;;;;;;;1.70;0.65;;;33.10;63.70;;;;;;5056182;28;20021;-58
2021/06/06 09:57:30;;;;;;;1.23;0.50;;;31.80;62.90;;;;;;5057440;28;20021;-57
2021/06/06 10:00:25;;;;;;;2.90;0.77;;;30.40;65.80;;;;;;5055670;28;20066;-57
2021/06/06 10:02:57;;;;;;;2.92;0.88;;;29.30;68.30;;;;;;5059398;28;20090;-57
2021/06/06 10:05:34;;;;;;;4.00;0.88;;;28.20;70.00;;;;;;5058546;28;20044;-57
2021/06/06 10:08:06;;;;;;;2.70;0.98;;;28.40;73.30;;;;;;5058310;28;20033;-58
2021/06/06 10:10:42;;;;;;;3.05;1.00;;;28.80;69.90;;;;;;5062981;28;20505;-57
2021/06/06 10:13:11;;;;;;;2.58;1.27;;;28.80;69.60;;;;;;5058245;28;20120;-57
2021/06/06 10:15:41;;;;;;;3.60;0.90;;;28.50;68.50;;;;;;5058742;28;20024;-57
2021/06/06 10:18:19;;;;;;;2.38;0.88;;;27.50;71.20;;;;;;5058816;28;20036;-57
2021/06/06 10:20:51;;;;;;;1.77;0.77;;;26.80;73.20;;;;;;5058382;28;20064;-57
2021/06/06 10:23:31;;;;;;;1.70;0.82;;;26.00;74.60;;;;;;5058549;28;20367;-57
2021/06/06 10:26:02;;;;;;;2.67;0.70;;;25.30;76.40;;;;;;5059001;28;20016;-57
2021/06/06 10:28:35;;;;;;;1.40;0.63;;;25.00;78.60;;;;;;5058055;28;20025;-57
2021/06/06 10:31:22;;;;;;;2.80;0.85;;;24.90;79.80;;;;;;5058872;28;20025;-56
2021/06/06 10:33:57;;;;;;;1.50;0.60;;;25.00;79.50;;;;;;5058759;28;20033;-57
2021/06/06 10:36:26;;;;;;;1.95;0.85;;;25.10;80.50;;;;;;5058164;28;20397;-57
2021/06/06 10:38:53;;;;;;;1.80;0.70;;;25.20;79.00;;;;;;5053751;28;20028;-57
2021/06/06 10:41:22;;;;;;;1.25;0.80;;;25.00;78.40;;;;;;5058171;28;20059;-57
2021/06/06 10:43:53;;;;;;;1.38;0.70;;;24.90;79.30;;;;;;5057781;28;20506;-57
2021/06/06 10:46:23;;;;;;;3.58;1.05;;;25.00;80.00;;;;;;5058270;28;20489;-57
2021/06/06 10:49:01;;;;;;;1.33;1.00;;;25.10;79.50;;;;;;5069783;28;20029;-58
2021/06/06 10:51:41;;;;;;;1.85;0.80;;;24.80;78.10;;;;;;5056505;28;20404;-59
2021/06/06 10:54:43;;;;;;;2.30;1.10;;;24.80;78.60;;;;;;5058353;28;20017;-59
2021/06/06 10:57:26;;;;;;;3.92;1.20;;;25.10;79.70;;;;;;5057713;28;20029;-59
2021/06/06 11:00:00;;;;;;;1.90;0.90;;;25.40;77.70;;;;;;5058041;28;20070;-59
2021/06/06 11:02:38;;;;;;;2.58;0.90;;;25.70;77.60;;;;;;5058243;28;20025;-59
2021/06/06 11:05:40;;;;;;;2.33;0.93;;;25.90;78.20;;;;;;5057423;28;20040;-58
2021/06/06 11:08:27;;;;;;;2.33;1.23;;;27.00;77.50;;;;;;5045515;28;20021;-59
2021/06/06 11:11:17;;;;;;;5.13;2.90;;;28.20;75.60;;;;;;5057458;28;20502;-59
2021/06/06 11:13:55;;;;;;;7.32;3.42;;;28.50;74.20;;;;;;5056998;28;20037;-59
2021/06/06 11:16:37;;;;;;;5.75;5.15;;;28.50;73.50;;;;;;5057779;28;20040;-57
2021/06/06 11:19:08;;;;;;;4.97;4.47;;;28.30;74.20;;;;;;5057051;28;20059;-57
2021/06/06 11:22:05;;;;;;;4.53;2.45;;;28.40;74.10;;;;;;5057801;28;20029;-57
2021/06/06 11:24:39;;;;;;;3.80;1.63;;;28.50;73.40;;;;;;5055079;28;20072;-57
2021/06/06 11:27:22;;;;;;;2.65;0.82;;;28.40;73.50;;;;;;5056811;28;20029;-57
2021/06/06 11:29:54;;;;;;;3.22;2.65;;;28.00;72.50;;;;;;5056161;28;20029;-57
2021/06/06 11:32:32;;;;;;;15.60;7.82;;;28.10;74.00;;;;;;5063492;28;20051;-57
2021/06/06 11:35:10;;;;;;;2.15;0.98;;;28.50;75.10;;;;;;5056882;28;20090;-57
2021/06/06 11:37:41;;;;;;;3.22;0.93;;;28.80;72.20;;;;;;5057475;28;20064;-57
2021/06/06 11:40:18;;;;;;;1.67;0.70;;;28.70;72.10;;;;;;5043762;28;20078;-57
2021/06/06 11:42:44;;;;;;;2.85;0.88;;;28.40;71.90;;;;;;5056654;28;20064;-57
2021/06/06 11:45:27;;;;;;;2.55;0.90;;;27.60;71.60;;;;;;5056653;28;20085;-56
2021/06/06 11:48:00;;;;;;;2.88;0.90;;;26.70;73.70;;;;;;5057329;28;20017;-56
2021/06/06 11:50:39;;;;;;;1.92;0.80;;;26.10;74.80;;;;;;5056778;28;20481;-56
2021/06/06 11:53:17;;;;;;;0.77;0.63;;;26.00;76.60;;;;;;5057032;28;20091;-59
2021/06/06 11:55:50;;;;;;;4.40;0.95;;;25.90;76.80;;;;;;5056864;28;20013;-59
2021/06/06 11:58:22;;;;;;;1.45;0.60;;;26.10;77.60;;;;;;5056913;28;20025;-59
2021/06/06 12:00:55;;;;;;;1.67;0.60;;;25.80;77.50;;;;;;5057235;28;20025;-59
2021/06/06 12:03:23;;;;;;;3.90;1.13;;;26.00;77.70;;;;;;5056564;28;20033;-59
2021/06/06 12:06:02;;;;;;;3.33;1.17;;;26.10;76.80;;;;;;5057118;28;20071;-59
2021/06/06 12:08:37;;;;;;;2.22;0.80;;;26.40;77.90;;;;;;5056765;28;20021;-59
2021/06/06 12:11:09;;;;;;;2.13;0.82;;;26.90;77.00;;;;;;5056387;28;20045;-59
2021/06/06 12:13:39;;;;;;;1.90;0.70;;;27.30;76.60;;;;;;5056643;28;20036;-59
2021/06/06 12:16:07;;;;;;;1.92;0.82;;;27.60;76.40;;;;;;5054896;28;20032;-59
2021/06/06 12:18:33;;;;;;;3.83;1.13;;;27.70;74.70;;;;;;5055727;28;20028;-59
2021/06/06 12:21:02;;;;;;;2.10;0.80;;;27.40;74.50;;;;;;5059986;28;20016;-59
2021/06/06 12:23:31;;;;;;;3.03;0.90;;;27.10;75.80;;;;;;5064265;28;20128;-59
2021/06/06 12:26:11;;;;;;;3.20;1.10;;;27.00;76.80;;;;;;5056187;28;20066;-58
2021/06/06 12:28:57;;;;;;;3.90;1.35;;;26.70;75.40;;;;;;5056395;28;20025;-59
2021/06/06 12:31:28;;;;;;;2.67;0.93;;;26.60;77.80;;;;;;5056192;28;20025;-59
2021/06/06 12:33:55;;;;;;;3.30;0.63;;;26.90;78.20;;;;;;5056104;28;20033;-59
2021/06/06 12:36:27;;;;;;;5.80;0.93;;;27.40;77.90;;;;;;5056401;28;20112;-59
2021/06/06 12:39:01;;;;;;;3.03;0.85;;;28.20;77.80;;;;;;5049642;28;20115;-59
2021/06/06 12:41:41;;;;;;;3.03;0.67;;;29.00;76.60;;;;;;5050830;28;20052;-59
2021/06/06 12:44:10;;;;;;;4.50;0.98;;;29.40;75.10;;;;;;5056176;28;20077;-59
2021/06/06 12:47:20;;;;;;;3.42;0.90;;;29.40;70.80;;;;;;5056158;28;20087;-59
2021/06/06 12:49:59;;;;;;;2.22;0.73;;;28.70;71.90;;;;;;5055621;28;20021;-59
2021/06/06 12:52:36;;;;;;;0.75;0.50;;;28.50;73.90;;;;;;5049720;28;20096;-59
2021/06/06 12:55:30;;;;;;;4.07;0.88;;;28.50;74.20;;;;;;5055578;28;20020;-59
2021/06/06 12:57:59;;;;;;;2.17;1.00;;;28.40;74.60;;;;;;5065326;28;20029;-59
2021/06/06 13:00:37;;;;;;;1.70;0.90;;;28.40;74.50;;;;;;5056385;28;20025;-59
2021/06/06 13:03:06;;;;;;;2.05;0.85;;;28.50;74.30;;;;;;5056040;28;20032;-60
2021/06/06 13:05:42;;;;;;;2.28;0.90;;;28.50;72.50;;;;;;5056227;28;20381;-59
2021/06/06 13:08:27;;;;;;;1.20;0.88;;;28.40;73.60;;;;;;5056525;28;20036;-59
2021/06/06 13:11:03;;;;;;;1.60;0.83;;;28.00;73.30;;;;;;5055848;28;20021;-59
2021/06/06 13:13:42;;;;;;;5.65;1.25;;;27.80;73.10;;;;;;5056244;28;20025;-60